Portada
METAR-TAF:

METAR-TAF

Aeroports :

Dubai, Emirats Àrabs Units

Aeroport Internacional de Dubai

latitud: 25-15-10N, longitud: 055-21-52E, altitud: 8 m

Observació

L'informe es va fer fa 50 minuts, a les 19:00 UTC
Vent 5 kt del Oest
Temperatura 23°C
Humitat 61%
Pressió 1013 hPa
Visibilitat 10 km o més
sense núvols per sota de 1500 mi sense presència de cumulonimbus.

METAR: OMDB 191900Z 26005KT CAVOK 23/15 Q1013 NOSIG

Hora: 23:50 (19:50 UTC)

Pronòstic

L'informe es va fer fa 2 hores i 59 minuts, a les 16:51 UTC
Pronòstic vàlid del 19 a les 18 UTC al 21 a les 00 UTC
Vent 10 kt del Oest/Nord-Oest
Visibilitat: 8000 m
Probabilitat 30%
l' 19 a les 18 UTC al 20 a les 05 UTC
Vent 5 kt del Sud-Oest
Probabilitat 30%
l' 20 a les 02 UTC al 20 a les 04 UTC
Visibilitat: 4000 m
calitja
Evolucionant progressivament
l' 20 a les 16 UTC al 20 a les 18 UTC
Vent 5 kt del Sud/Sud-Oest

TAF: OMDB 191651Z 1918/2100 29010KT 8000 NSC PROB30 1918/2005 23005KT PROB30 2002/2004 4000 HZ BECMG 2016/2018 21005KT

Observacions i pronòstics meteorològics de més de 4000 aeroports (METAR i TAF).

Les estacions disponibles són els punts grocs i vermells al mapa.

Posi el ratolí al punt desitjat per veure el nom de l'estació.

Feu clic per veure les observacions i els pronòstics meteorològics.

Per canviar el mapa: feu clic els botons verds amb una creu de color negre per apropar; al botó verd amb un guió per allunyar la imatge; o en les fletxes verdes per a mapes adjacents.


METAR-TAF: